sensor_id;sensor_type;location;lat;lon;timestamp;P1;durP1;ratioP1;P2;durP2;ratioP2
38111;SDS011;64011;56.312;44.048;2022-11-12T00:00:45;24.65;;;12.93;;
38111;SDS011;64011;56.312;44.048;2022-11-12T00:02:46;21.63;;;11.05;;
38111;SDS011;64011;56.312;44.048;2022-11-12T00:04:47;24.40;;;13.15;;
38111;SDS011;64011;56.312;44.048;2022-11-12T00:06:48;26.33;;;12.32;;
38111;SDS011;64011;56.312;44.048;2022-11-12T00:08:49;23.48;;;11.88;;
38111;SDS011;64011;56.312;44.048;2022-11-12T00:10:49;23.67;;;12.00;;
38111;SDS011;64011;56.312;44.048;2022-11-12T00:12:52;22.17;;;11.38;;
38111;SDS011;64011;56.312;44.048;2022-11-12T00:14:52;23.42;;;12.32;;
38111;SDS011;64011;56.312;44.048;2022-11-12T00:16:53;20.73;;;9.55;;
38111;SDS011;64011;56.312;44.048;2022-11-12T00:18:54;21.65;;;10.05;;
38111;SDS011;64011;56.312;44.048;2022-11-12T00:20:55;23.75;;;11.20;;
38111;SDS011;64011;56.312;44.048;2022-11-12T00:22:56;19.10;;;9.00;;
38111;SDS011;64011;56.312;44.048;2022-11-12T00:24:56;22.27;;;10.48;;
38111;SDS011;64011;56.312;44.048;2022-11-12T00:26:57;22.98;;;11.43;;
38111;SDS011;64011;56.312;44.048;2022-11-12T00:28:59;20.50;;;8.73;;
38111;SDS011;64011;56.312;44.048;2022-11-12T00:31:05;19.25;;;8.85;;
38111;SDS011;64011;56.312;44.048;2022-11-12T00:33:07;20.27;;;9.43;;
38111;SDS011;64011;56.312;44.048;2022-11-12T00:35:08;18.45;;;8.27;;
38111;SDS011;64011;56.312;44.048;2022-11-12T00:37:09;20.38;;;9.57;;
38111;SDS011;64011;56.312;44.048;2022-11-12T00:39:10;20.23;;;8.85;;
38111;SDS011;64011;56.312;44.048;2022-11-12T00:41:11;19.40;;;8.85;;
38111;SDS011;64011;56.312;44.048;2022-11-12T00:43:11;17.58;;;7.07;;
38111;SDS011;64011;56.312;44.048;2022-11-12T00:45:14;18.77;;;9.15;;
38111;SDS011;64011;56.312;44.048;2022-11-12T00:47:14;16.33;;;6.70;;
38111;SDS011;64011;56.312;44.048;2022-11-12T00:49:15;19.20;;;8.38;;
38111;SDS011;64011;56.312;44.048;2022-11-12T00:51:16;17.70;;;7.53;;
38111;SDS011;64011;56.312;44.048;2022-11-12T00:53:17;18.75;;;8.68;;
38111;SDS011;64011;56.312;44.048;2022-11-12T00:55:18;19.88;;;8.70;;
38111;SDS011;64011;56.312;44.048;2022-11-12T00:57:19;17.40;;;8.27;;
38111;SDS011;64011;56.312;44.048;2022-11-12T00:59:19;16.05;;;6.13;;
38111;SDS011;64011;56.312;44.048;2022-11-12T01:01:22;17.92;;;7.45;;
38111;SDS011;64011;56.312;44.048;2022-11-12T01:03:23;19.77;;;7.40;;
38111;SDS011;64011;56.312;44.048;2022-11-12T01:05:23;17.27;;;6.72;;
38111;SDS011;64011;56.312;44.048;2022-11-12T01:07:24;13.38;;;5.38;;
38111;SDS011;64011;56.312;44.048;2022-11-12T01:09:25;18.80;;;7.43;;
38111;SDS011;64011;56.312;44.048;2022-11-12T01:11:26;17.58;;;7.35;;
38111;SDS011;64011;56.312;44.048;2022-11-12T01:13:28;19.95;;;8.35;;
38111;SDS011;64011;56.312;44.048;2022-11-12T01:15:29;19.90;;;8.65;;
38111;SDS011;64011;56.312;44.048;2022-11-12T01:17:31;20.90;;;9.50;;
38111;SDS011;64011;56.312;44.048;2022-11-12T01:19:32;17.63;;;8.13;;
38111;SDS011;64011;56.312;44.048;2022-11-12T01:21:35;17.13;;;7.07;;
38111;SDS011;64011;56.312;44.048;2022-11-12T01:23:38;17.45;;;6.30;;
38111;SDS011;64011;56.312;44.048;2022-11-12T01:25:40;17.25;;;7.13;;
38111;SDS011;64011;56.312;44.048;2022-11-12T01:27:40;19.60;;;8.85;;
38111;SDS011;64011;56.312;44.048;2022-11-12T01:29:41;17.00;;;6.60;;
38111;SDS011;64011;56.312;44.048;2022-11-12T01:31:42;21.08;;;8.73;;
38111;SDS011;64011;56.312;44.048;2022-11-12T01:33:44;18.20;;;7.95;;
38111;SDS011;64011;56.312;44.048;2022-11-12T01:35:46;17.10;;;7.13;;
38111;SDS011;64011;56.312;44.048;2022-11-12T01:37:47;18.90;;;7.97;;
38111;SDS011;64011;56.312;44.048;2022-11-12T01:39:48;15.73;;;6.72;;
38111;SDS011;64011;56.312;44.048;2022-11-12T01:41:49;16.88;;;6.95;;
38111;SDS011;64011;56.312;44.048;2022-11-12T01:46:11;16.33;;;7.00;;
38111;SDS011;64011;56.312;44.048;2022-11-12T01:48:17;18.67;;;7.47;;
38111;SDS011;64011;56.312;44.048;2022-11-12T01:50:26;16.20;;;6.93;;
38111;SDS011;64011;56.312;44.048;2022-11-12T01:52:29;15.38;;;6.53;;
38111;SDS011;64011;56.312;44.048;2022-11-12T01:54:32;15.02;;;5.97;;
38111;SDS011;64011;56.312;44.048;2022-11-12T01:56:33;13.70;;;5.07;;
38111;SDS011;64011;56.312;44.048;2022-11-12T01:58:35;16.23;;;6.25;;
38111;SDS011;64011;56.312;44.048;2022-11-12T02:00:37;15.63;;;6.15;;
38111;SDS011;64011;56.312;44.048;2022-11-12T02:02:38;16.20;;;6.15;;
38111;SDS011;64011;56.312;44.048;2022-11-12T02:04:40;17.05;;;6.03;;
38111;SDS011;64011;56.312;44.048;2022-11-12T02:06:43;16.52;;;6.45;;
38111;SDS011;64011;56.312;44.048;2022-11-12T02:08:45;14.35;;;5.38;;
38111;SDS011;64011;56.312;44.048;2022-11-12T02:10:46;16.30;;;6.70;;
38111;SDS011;64011;56.312;44.048;2022-11-12T02:12:47;16.95;;;6.38;;
38111;SDS011;64011;56.312;44.048;2022-11-12T02:15:09;15.70;;;6.28;;
38111;SDS011;64011;56.312;44.048;2022-11-12T02:17:10;14.10;;;4.60;;
38111;SDS011;64011;56.312;44.048;2022-11-12T02:19:11;13.82;;;5.30;;
38111;SDS011;64011;56.312;44.048;2022-11-12T02:21:18;13.35;;;4.72;;
38111;SDS011;64011;56.312;44.048;2022-11-12T02:23:19;13.95;;;4.38;;
38111;SDS011;64011;56.312;44.048;2022-11-12T02:25:20;12.75;;;4.95;;
38111;SDS011;64011;56.312;44.048;2022-11-12T02:27:22;13.60;;;4.75;;
38111;SDS011;64011;56.312;44.048;2022-11-12T02:29:23;14.55;;;5.10;;
38111;SDS011;64011;56.312;44.048;2022-11-12T02:31:24;13.57;;;4.55;;
38111;SDS011;64011;56.312;44.048;2022-11-12T02:33:25;8.75;;;3.08;;
38111;SDS011;64011;56.312;44.048;2022-11-12T02:35:26;14.55;;;5.32;;
38111;SDS011;64011;56.312;44.048;2022-11-12T02:37:28;12.70;;;4.45;;
38111;SDS011;64011;56.312;44.048;2022-11-12T02:39:29;12.98;;;3.88;;
38111;SDS011;64011;56.312;44.048;2022-11-12T02:41:29;14.65;;;5.72;;
38111;SDS011;64011;56.312;44.048;2022-11-12T02:43:30;13.70;;;5.00;;
38111;SDS011;64011;56.312;44.048;2022-11-12T02:45:31;11.10;;;3.80;;
38111;SDS011;64011;56.312;44.048;2022-11-12T02:47:32;11.60;;;4.80;;
38111;SDS011;64011;56.312;44.048;2022-11-12T02:49:33;9.85;;;4.05;;
38111;SDS011;64011;56.312;44.048;2022-11-12T02:51:34;11.68;;;4.07;;
38111;SDS011;64011;56.312;44.048;2022-11-12T02:53:36;13.35;;;4.85;;
38111;SDS011;64011;56.312;44.048;2022-11-12T02:55:37;10.95;;;3.90;;
38111;SDS011;64011;56.312;44.048;2022-11-12T02:57:38;10.90;;;4.28;;
38111;SDS011;64011;56.312;44.048;2022-11-12T02:59:39;12.43;;;4.13;;
38111;SDS011;64011;56.312;44.048;2022-11-12T03:01:40;12.00;;;4.13;;
38111;SDS011;64011;56.312;44.048;2022-11-12T03:03:41;7.47;;;2.75;;
38111;SDS011;64011;56.312;44.048;2022-11-12T03:05:41;11.05;;;3.80;;
38111;SDS011;64011;56.312;44.048;2022-11-12T03:07:43;8.65;;;2.95;;
38111;SDS011;64011;56.312;44.048;2022-11-12T03:09:45;11.30;;;3.47;;
38111;SDS011;64011;56.312;44.048;2022-11-12T03:11:46;10.98;;;3.67;;
38111;SDS011;64011;56.312;44.048;2022-11-12T03:13:46;9.82;;;3.42;;
38111;SDS011;64011;56.312;44.048;2022-11-12T03:15:47;8.90;;;3.47;;
38111;SDS011;64011;56.312;44.048;2022-11-12T03:17:48;8.20;;;3.15;;
38111;SDS011;64011;56.312;44.048;2022-11-12T03:19:49;8.23;;;3.20;;
38111;SDS011;64011;56.312;44.048;2022-11-12T03:21:50;7.72;;;2.97;;
38111;SDS011;64011;56.312;44.048;2022-11-12T03:23:50;9.40;;;2.65;;
38111;SDS011;64011;56.312;44.048;2022-11-12T03:25:53;10.00;;;3.83;;
38111;SDS011;64011;56.312;44.048;2022-11-12T03:27:56;9.05;;;3.28;;
38111;SDS011;64011;56.312;44.048;2022-11-12T03:29:57;7.15;;;3.13;;
38111;SDS011;64011;56.312;44.048;2022-11-12T03:31:58;10.23;;;3.97;;
38111;SDS011;64011;56.312;44.048;2022-11-12T03:33:59;7.35;;;3.17;;
38111;SDS011;64011;56.312;44.048;2022-11-12T03:36:00;8.00;;;3.17;;
38111;SDS011;64011;56.312;44.048;2022-11-12T03:38:01;9.35;;;3.35;;
38111;SDS011;64011;56.312;44.048;2022-11-12T03:40:02;7.88;;;3.13;;
38111;SDS011;64011;56.312;44.048;2022-11-12T03:42:06;8.27;;;3.13;;
38111;SDS011;64011;56.312;44.048;2022-11-12T03:44:06;9.15;;;3.15;;
38111;SDS011;64011;56.312;44.048;2022-11-12T03:46:07;8.05;;;2.92;;
38111;SDS011;64011;56.312;44.048;2022-11-12T03:48:08;7.20;;;2.60;;
38111;SDS011;64011;56.312;44.048;2022-11-12T03:50:09;9.50;;;3.50;;
38111;SDS011;64011;56.312;44.048;2022-11-12T03:52:10;7.97;;;3.05;;
38111;SDS011;64011;56.312;44.048;2022-11-12T03:54:11;6.35;;;2.58;;
38111;SDS011;64011;56.312;44.048;2022-11-12T03:56:11;8.18;;;2.90;;
38111;SDS011;64011;56.312;44.048;2022-11-12T03:58:14;8.57;;;3.05;;
38111;SDS011;64011;56.312;44.048;2022-11-12T04:00:15;7.97;;;3.03;;
38111;SDS011;64011;56.312;44.048;2022-11-12T04:02:16;4.50;;;1.80;;
38111;SDS011;64011;56.312;44.048;2022-11-12T04:04:17;7.68;;;2.90;;
38111;SDS011;64011;56.312;44.048;2022-11-12T04:06:18;6.15;;;2.35;;
38111;SDS011;64011;56.312;44.048;2022-11-12T04:08:20;8.68;;;3.60;;
38111;SDS011;64011;56.312;44.048;2022-11-12T04:10:21;12.75;;;3.63;;
38111;SDS011;64011;56.312;44.048;2022-11-12T04:12:22;7.53;;;3.08;;
38111;SDS011;64011;56.312;44.048;2022-11-12T04:14:24;8.43;;;3.13;;
38111;SDS011;64011;56.312;44.048;2022-11-12T04:16:25;6.63;;;2.58;;
38111;SDS011;64011;56.312;44.048;2022-11-12T04:18:26;6.88;;;2.88;;
38111;SDS011;64011;56.312;44.048;2022-11-12T04:20:27;13.38;;;3.45;;
38111;SDS011;64011;56.312;44.048;2022-11-12T04:22:28;8.60;;;3.22;;
38111;SDS011;64011;56.312;44.048;2022-11-12T04:24:29;8.25;;;3.33;;
38111;SDS011;64011;56.312;44.048;2022-11-12T04:26:31;7.38;;;3.20;;
38111;SDS011;64011;56.312;44.048;2022-11-12T04:28:32;7.88;;;3.35;;
38111;SDS011;64011;56.312;44.048;2022-11-12T04:30:34;9.07;;;3.53;;
38111;SDS011;64011;56.312;44.048;2022-11-12T04:32:36;10.13;;;4.03;;
38111;SDS011;64011;56.312;44.048;2022-11-12T04:34:38;10.27;;;3.42;;
38111;SDS011;64011;56.312;44.048;2022-11-12T04:36:39;8.75;;;3.30;;
38111;SDS011;64011;56.312;44.048;2022-11-12T04:38:39;8.52;;;3.50;;
38111;SDS011;64011;56.312;44.048;2022-11-12T04:40:40;9.20;;;3.80;;
38111;SDS011;64011;56.312;44.048;2022-11-12T04:42:41;6.28;;;2.55;;
38111;SDS011;64011;56.312;44.048;2022-11-12T04:44:42;7.30;;;3.10;;
38111;SDS011;64011;56.312;44.048;2022-11-12T04:46:44;7.10;;;3.15;;
38111;SDS011;64011;56.312;44.048;2022-11-12T04:48:46;8.25;;;3.20;;
38111;SDS011;64011;56.312;44.048;2022-11-12T04:50:47;11.52;;;4.03;;
38111;SDS011;64011;56.312;44.048;2022-11-12T04:52:50;9.65;;;3.75;;
38111;SDS011;64011;56.312;44.048;2022-11-12T04:54:54;12.35;;;4.22;;
38111;SDS011;64011;56.312;44.048;2022-11-12T04:56:55;14.68;;;5.47;;
38111;SDS011;64011;56.312;44.048;2022-11-12T04:58:55;9.98;;;4.25;;
38111;SDS011;64011;56.312;44.048;2022-11-12T05:00:56;10.90;;;3.95;;
38111;SDS011;64011;56.312;44.048;2022-11-12T05:02:58;11.50;;;4.38;;
38111;SDS011;64011;56.312;44.048;2022-11-12T05:04:59;11.95;;;4.75;;
38111;SDS011;64011;56.312;44.048;2022-11-12T05:07:00;13.00;;;4.93;;
38111;SDS011;64011;56.312;44.048;2022-11-12T05:09:01;9.38;;;3.38;;
38111;SDS011;64011;56.312;44.048;2022-11-12T05:11:02;9.70;;;4.15;;
38111;SDS011;64011;56.312;44.048;2022-11-12T05:13:05;11.60;;;4.90;;
38111;SDS011;64011;56.312;44.048;2022-11-12T05:15:09;6.18;;;2.65;;
38111;SDS011;64011;56.312;44.048;2022-11-12T05:17:10;10.70;;;3.70;;
38111;SDS011;64011;56.312;44.048;2022-11-12T05:19:12;10.25;;;3.95;;
38111;SDS011;64011;56.312;44.048;2022-11-12T05:21:13;13.23;;;5.07;;
38111;SDS011;64011;56.312;44.048;2022-11-12T05:23:14;12.80;;;4.75;;
38111;SDS011;64011;56.312;44.048;2022-11-12T05:25:15;12.18;;;4.90;;
38111;SDS011;64011;56.312;44.048;2022-11-12T05:27:17;11.90;;;4.55;;
38111;SDS011;64011;56.312;44.048;2022-11-12T05:29:19;13.15;;;4.63;;
38111;SDS011;64011;56.312;44.048;2022-11-12T05:31:20;12.30;;;4.63;;
38111;SDS011;64011;56.312;44.048;2022-11-12T05:33:21;10.85;;;4.07;;
38111;SDS011;64011;56.312;44.048;2022-11-12T05:35:23;14.65;;;5.20;;
38111;SDS011;64011;56.312;44.048;2022-11-12T05:37:24;15.07;;;5.10;;
38111;SDS011;64011;56.312;44.048;2022-11-12T05:39:25;12.80;;;4.88;;
38111;SDS011;64011;56.312;44.048;2022-11-12T05:41:25;14.30;;;5.32;;
38111;SDS011;64011;56.312;44.048;2022-11-12T05:43:26;15.57;;;5.57;;
38111;SDS011;64011;56.312;44.048;2022-11-12T05:45:27;9.70;;;3.45;;
38111;SDS011;64011;56.312;44.048;2022-11-12T05:47:28;13.80;;;6.00;;
38111;SDS011;64011;56.312;44.048;2022-11-12T05:49:29;17.02;;;6.30;;
38111;SDS011;64011;56.312;44.048;2022-11-12T05:51:31;16.23;;;6.32;;
38111;SDS011;64011;56.312;44.048;2022-11-12T05:53:32;16.95;;;6.53;;
38111;SDS011;64011;56.312;44.048;2022-11-12T05:55:33;15.02;;;5.45;;
38111;SDS011;64011;56.312;44.048;2022-11-12T05:57:34;15.80;;;4.93;;
38111;SDS011;64011;56.312;44.048;2022-11-12T05:59:34;15.35;;;5.63;;
38111;SDS011;64011;56.312;44.048;2022-11-12T06:01:35;17.42;;;5.40;;
38111;SDS011;64011;56.312;44.048;2022-11-12T06:03:36;16.60;;;6.30;;
38111;SDS011;64011;56.312;44.048;2022-11-12T06:05:37;16.05;;;5.88;;
38111;SDS011;64011;56.312;44.048;2022-11-12T06:07:40;12.52;;;4.90;;
38111;SDS011;64011;56.312;44.048;2022-11-12T06:09:40;19.33;;;8.07;;
38111;SDS011;64011;56.312;44.048;2022-11-12T06:11:41;20.38;;;8.90;;
38111;SDS011;64011;56.312;44.048;2022-11-12T06:13:42;17.90;;;7.32;;
38111;SDS011;64011;56.312;44.048;2022-11-12T06:15:43;14.50;;;5.60;;
38111;SDS011;64011;56.312;44.048;2022-11-12T06:17:44;15.93;;;5.72;;
38111;SDS011;64011;56.312;44.048;2022-11-12T06:19:45;16.13;;;5.05;;
38111;SDS011;64011;56.312;44.048;2022-11-12T06:21:45;15.77;;;5.32;;
38111;SDS011;64011;56.312;44.048;2022-11-12T06:23:49;14.25;;;5.60;;
38111;SDS011;64011;56.312;44.048;2022-11-12T06:25:50;16.30;;;6.65;;
38111;SDS011;64011;56.312;44.048;2022-11-12T06:27:51;15.50;;;6.38;;
38111;SDS011;64011;56.312;44.048;2022-11-12T06:29:52;15.80;;;5.75;;
38111;SDS011;64011;56.312;44.048;2022-11-12T06:31:53;16.35;;;5.65;;
38111;SDS011;64011;56.312;44.048;2022-11-12T06:33:53;17.35;;;6.65;;
38111;SDS011;64011;56.312;44.048;2022-11-12T06:35:57;20.67;;;7.35;;
38111;SDS011;64011;56.312;44.048;2022-11-12T06:37:58;20.70;;;6.47;;
38111;SDS011;64011;56.312;44.048;2022-11-12T06:40:00;16.25;;;5.50;;
38111;SDS011;64011;56.312;44.048;2022-11-12T06:42:01;14.43;;;5.82;;
38111;SDS011;64011;56.312;44.048;2022-11-12T06:44:02;15.65;;;6.15;;
38111;SDS011;64011;56.312;44.048;2022-11-12T06:46:04;18.88;;;7.63;;
38111;SDS011;64011;56.312;44.048;2022-11-12T06:48:06;14.93;;;5.78;;
38111;SDS011;64011;56.312;44.048;2022-11-12T06:50:07;16.20;;;6.07;;
38111;SDS011;64011;56.312;44.048;2022-11-12T06:52:08;16.10;;;5.07;;
38111;SDS011;64011;56.312;44.048;2022-11-12T06:54:09;18.67;;;6.43;;
38111;SDS011;64011;56.312;44.048;2022-11-12T06:56:11;14.77;;;6.03;;
38111;SDS011;64011;56.312;44.048;2022-11-12T06:58:12;17.60;;;6.32;;
38111;SDS011;64011;56.312;44.048;2022-11-12T07:00:13;17.70;;;6.43;;
38111;SDS011;64011;56.312;44.048;2022-11-12T07:02:15;14.63;;;5.32;;
38111;SDS011;64011;56.312;44.048;2022-11-12T07:04:15;18.65;;;6.75;;
38111;SDS011;64011;56.312;44.048;2022-11-12T07:06:16;14.18;;;5.40;;
38111;SDS011;64011;56.312;44.048;2022-11-12T07:08:17;17.08;;;6.90;;
38111;SDS011;64011;56.312;44.048;2022-11-12T07:10:18;17.27;;;6.20;;
38111;SDS011;64011;56.312;44.048;2022-11-12T07:12:20;18.27;;;7.18;;
38111;SDS011;64011;56.312;44.048;2022-11-12T07:14:21;17.58;;;7.25;;
38111;SDS011;64011;56.312;44.048;2022-11-12T07:16:22;14.18;;;6.13;;
38111;SDS011;64011;56.312;44.048;2022-11-12T07:18:23;15.60;;;5.50;;
38111;SDS011;64011;56.312;44.048;2022-11-12T07:20:23;14.50;;;5.32;;
38111;SDS011;64011;56.312;44.048;2022-11-12T07:22:24;14.32;;;5.10;;
38111;SDS011;64011;56.312;44.048;2022-11-12T07:24:25;14.45;;;4.80;;
38111;SDS011;64011;56.312;44.048;2022-11-12T07:26:26;20.35;;;6.28;;
38111;SDS011;64011;56.312;44.048;2022-11-12T07:28:28;15.05;;;5.55;;
38111;SDS011;64011;56.312;44.048;2022-11-12T07:30:29;15.68;;;6.15;;
38111;SDS011;64011;56.312;44.048;2022-11-12T07:32:30;16.08;;;5.78;;
38111;SDS011;64011;56.312;44.048;2022-11-12T07:34:31;15.73;;;6.00;;
38111;SDS011;64011;56.312;44.048;2022-11-12T07:36:32;14.43;;;5.10;;
38111;SDS011;64011;56.312;44.048;2022-11-12T07:38:34;14.60;;;5.20;;
38111;SDS011;64011;56.312;44.048;2022-11-12T07:40:36;14.15;;;5.22;;
38111;SDS011;64011;56.312;44.048;2022-11-12T07:42:37;13.68;;;5.70;;
38111;SDS011;64011;56.312;44.048;2022-11-12T07:44:39;15.57;;;5.03;;
38111;SDS011;64011;56.312;44.048;2022-11-12T07:46:40;12.68;;;4.40;;
38111;SDS011;64011;56.312;44.048;2022-11-12T07:48:43;13.52;;;4.30;;
38111;SDS011;64011;56.312;44.048;2022-11-12T07:50:44;14.73;;;4.57;;
38111;SDS011;64011;56.312;44.048;2022-11-12T07:52:45;13.02;;;4.32;;
38111;SDS011;64011;56.312;44.048;2022-11-12T07:54:46;13.43;;;4.60;;
38111;SDS011;64011;56.312;44.048;2022-11-12T07:56:47;17.60;;;5.78;;
38111;SDS011;64011;56.312;44.048;2022-11-12T07:58:48;15.40;;;4.28;;
38111;SDS011;64011;56.312;44.048;2022-11-12T08:00:51;13.73;;;4.82;;
38111;SDS011;64011;56.312;44.048;2022-11-12T08:02:52;13.13;;;4.47;;
38111;SDS011;64011;56.312;44.048;2022-11-12T08:04:53;14.18;;;4.95;;
38111;SDS011;64011;56.312;44.048;2022-11-12T08:06:54;12.10;;;4.38;;
38111;SDS011;64011;56.312;44.048;2022-11-12T08:08:55;10.25;;;3.75;;
38111;SDS011;64011;56.312;44.048;2022-11-12T08:10:56;13.25;;;4.18;;
38111;SDS011;64011;56.312;44.048;2022-11-12T08:12:59;13.48;;;4.32;;
38111;SDS011;64011;56.312;44.048;2022-11-12T08:15:00;13.15;;;4.00;;
38111;SDS011;64011;56.312;44.048;2022-11-12T08:17:03;13.90;;;4.32;;
38111;SDS011;64011;56.312;44.048;2022-11-12T08:19:04;10.85;;;4.38;;
38111;SDS011;64011;56.312;44.048;2022-11-12T08:21:05;12.75;;;4.15;;
38111;SDS011;64011;56.312;44.048;2022-11-12T08:23:07;12.30;;;4.30;;
38111;SDS011;64011;56.312;44.048;2022-11-12T08:25:08;10.88;;;4.20;;
38111;SDS011;64011;56.312;44.048;2022-11-12T08:27:09;13.00;;;5.00;;
38111;SDS011;64011;56.312;44.048;2022-11-12T08:29:09;11.45;;;4.55;;
38111;SDS011;64011;56.312;44.048;2022-11-12T08:31:11;14.13;;;5.93;;
38111;SDS011;64011;56.312;44.048;2022-11-12T08:33:14;14.90;;;5.82;;
38111;SDS011;64011;56.312;44.048;2022-11-12T08:35:15;15.95;;;6.32;;
38111;SDS011;64011;56.312;44.048;2022-11-12T08:37:16;18.20;;;6.88;;
38111;SDS011;64011;56.312;44.048;2022-11-12T08:39:17;14.80;;;5.85;;
38111;SDS011;64011;56.312;44.048;2022-11-12T08:41:18;15.88;;;5.38;;
38111;SDS011;64011;56.312;44.048;2022-11-12T08:43:18;19.52;;;6.50;;
38111;SDS011;64011;56.312;44.048;2022-11-12T08:45:19;16.02;;;6.55;;
38111;SDS011;64011;56.312;44.048;2022-11-12T08:47:20;18.63;;;7.68;;
38111;SDS011;64011;56.312;44.048;2022-11-12T08:49:22;15.80;;;6.63;;
38111;SDS011;64011;56.312;44.048;2022-11-12T08:51:23;16.25;;;6.85;;
38111;SDS011;64011;56.312;44.048;2022-11-12T08:53:24;17.15;;;7.78;;
38111;SDS011;64011;56.312;44.048;2022-11-12T08:55:25;17.55;;;7.82;;
38111;SDS011;64011;56.312;44.048;2022-11-12T08:57:25;14.93;;;5.65;;
38111;SDS011;64011;56.312;44.048;2022-11-12T08:59:26;16.48;;;7.55;;
38111;SDS011;64011;56.312;44.048;2022-11-12T09:01:27;15.13;;;6.70;;
38111;SDS011;64011;56.312;44.048;2022-11-12T09:03:28;15.02;;;6.32;;
38111;SDS011;64011;56.312;44.048;2022-11-12T09:05:30;18.05;;;6.90;;
38111;SDS011;64011;56.312;44.048;2022-11-12T09:07:31;15.05;;;6.25;;
38111;SDS011;64011;56.312;44.048;2022-11-12T09:09:32;17.45;;;7.32;;
38111;SDS011;64011;56.312;44.048;2022-11-12T09:11:33;17.08;;;6.20;;
38111;SDS011;64011;56.312;44.048;2022-11-12T09:13:34;16.73;;;7.05;;
38111;SDS011;64011;56.312;44.048;2022-11-12T09:15:35;17.55;;;7.45;;
38111;SDS011;64011;56.312;44.048;2022-11-12T09:17:35;15.38;;;6.72;;
38111;SDS011;64011;56.312;44.048;2022-11-12T09:19:36;18.10;;;7.43;;
38111;SDS011;64011;56.312;44.048;2022-11-12T09:21:38;15.18;;;6.85;;
38111;SDS011;64011;56.312;44.048;2022-11-12T09:23:39;16.42;;;6.78;;
38111;SDS011;64011;56.312;44.048;2022-11-12T09:25:40;16.35;;;7.35;;
38111;SDS011;64011;56.312;44.048;2022-11-12T09:27:41;18.23;;;8.38;;
38111;SDS011;64011;56.312;44.048;2022-11-12T09:29:42;16.55;;;6.93;;
38111;SDS011;64011;56.312;44.048;2022-11-12T09:31:43;16.98;;;7.75;;
38111;SDS011;64011;56.312;44.048;2022-11-12T09:33:43;15.50;;;6.32;;
38111;SDS011;64011;56.312;44.048;2022-11-12T09:35:44;17.80;;;7.80;;
38111;SDS011;64011;56.312;44.048;2022-11-12T09:37:47;19.80;;;10.55;;
38111;SDS011;64011;56.312;44.048;2022-11-12T09:39:48;16.20;;;7.55;;
38111;SDS011;64011;56.312;44.048;2022-11-12T09:41:49;16.00;;;6.88;;
38111;SDS011;64011;56.312;44.048;2022-11-12T09:43:50;17.98;;;8.00;;
38111;SDS011;64011;56.312;44.048;2022-11-12T09:45:52;17.25;;;7.25;;
38111;SDS011;64011;56.312;44.048;2022-11-12T09:47:54;16.83;;;6.47;;
38111;SDS011;64011;56.312;44.048;2022-11-12T09:49:57;16.20;;;7.70;;
38111;SDS011;64011;56.312;44.048;2022-11-12T09:52:05;16.17;;;6.78;;
38111;SDS011;64011;56.312;44.048;2022-11-12T09:54:16;13.25;;;5.60;;
38111;SDS011;64011;56.312;44.048;2022-11-12T09:56:19;15.97;;;7.43;;
38111;SDS011;64011;56.312;44.048;2022-11-12T09:58:20;13.77;;;5.85;;
38111;SDS011;64011;56.312;44.048;2022-11-12T10:00:21;10.65;;;4.72;;
38111;SDS011;64011;56.312;44.048;2022-11-12T10:02:24;12.90;;;5.70;;
38111;SDS011;64011;56.312;44.048;2022-11-12T10:04:36;15.13;;;6.47;;
38111;SDS011;64011;56.312;44.048;2022-11-12T10:06:47;12.35;;;4.97;;
38111;SDS011;64011;56.312;44.048;2022-11-12T10:08:54;13.38;;;5.00;;
38111;SDS011;64011;56.312;44.048;2022-11-12T10:11:01;13.13;;;4.75;;
38111;SDS011;64011;56.312;44.048;2022-11-12T10:13:10;11.98;;;5.40;;
38111;SDS011;64011;56.312;44.048;2022-11-12T10:15:34;12.32;;;4.82;;
38111;SDS011;64011;56.312;44.048;2022-11-12T10:17:38;10.55;;;4.82;;
38111;SDS011;64011;56.312;44.048;2022-11-12T10:19:44;13.32;;;5.20;;
38111;SDS011;64011;56.312;44.048;2022-11-12T10:21:51;15.18;;;4.85;;
38111;SDS011;64011;56.312;44.048;2022-11-12T10:23:56;11.60;;;4.20;;
38111;SDS011;64011;56.312;44.048;2022-11-12T10:25:58;12.57;;;4.30;;
38111;SDS011;64011;56.312;44.048;2022-11-12T10:28:03;10.77;;;4.30;;
38111;SDS011;64011;56.312;44.048;2022-11-12T10:30:12;10.48;;;4.50;;
38111;SDS011;64011;56.312;44.048;2022-11-12T10:32:15;12.43;;;4.35;;
38111;SDS011;64011;56.312;44.048;2022-11-12T10:34:17;11.98;;;4.30;;
38111;SDS011;64011;56.312;44.048;2022-11-12T10:36:23;14.52;;;5.70;;
38111;SDS011;64011;56.312;44.048;2022-11-12T10:40:31;10.80;;;4.68;;
38111;SDS011;64011;56.312;44.048;2022-11-12T10:42:33;13.48;;;4.55;;
38111;SDS011;64011;56.312;44.048;2022-11-12T10:44:35;12.52;;;4.85;;
38111;SDS011;64011;56.312;44.048;2022-11-12T10:46:37;11.98;;;4.30;;
38111;SDS011;64011;56.312;44.048;2022-11-12T10:48:38;11.02;;;3.92;;
38111;SDS011;64011;56.312;44.048;2022-11-12T10:50:39;13.23;;;3.97;;
38111;SDS011;64011;56.312;44.048;2022-11-12T10:52:51;12.82;;;4.00;;
38111;SDS011;64011;56.312;44.048;2022-11-12T10:57:22;11.02;;;3.78;;
38111;SDS011;64011;56.312;44.048;2022-11-12T10:59:23;13.60;;;4.05;;
38111;SDS011;64011;56.312;44.048;2022-11-12T11:01:26;12.48;;;3.95;;
38111;SDS011;64011;56.312;44.048;2022-11-12T11:03:28;7.80;;;2.90;;
38111;SDS011;64011;56.312;44.048;2022-11-12T11:05:32;8.48;;;3.28;;
38111;SDS011;64011;56.312;44.048;2022-11-12T11:07:34;10.57;;;3.88;;
38111;SDS011;64011;56.312;44.048;2022-11-12T11:09:35;8.35;;;3.60;;
38111;SDS011;64011;56.312;44.048;2022-11-12T11:11:35;11.50;;;3.92;;
38111;SDS011;64011;56.312;44.048;2022-11-12T11:13:36;12.05;;;4.35;;
38111;SDS011;64011;56.312;44.048;2022-11-12T11:15:40;7.38;;;3.10;;
38111;SDS011;64011;56.312;44.048;2022-11-12T11:17:58;8.45;;;3.63;;
38111;SDS011;64011;56.312;44.048;2022-11-12T11:19:59;10.02;;;3.88;;
38111;SDS011;64011;56.312;44.048;2022-11-12T11:24:29;9.27;;;3.35;;
38111;SDS011;64011;56.312;44.048;2022-11-12T11:26:36;12.00;;;4.40;;
38111;SDS011;64011;56.312;44.048;2022-11-12T11:28:45;8.35;;;3.55;;
38111;SDS011;64011;56.312;44.048;2022-11-12T11:30:49;11.65;;;3.22;;
38111;SDS011;64011;56.312;44.048;2022-11-12T11:35:23;8.82;;;3.50;;
38111;SDS011;64011;56.312;44.048;2022-11-12T11:37:26;13.55;;;3.78;;
38111;SDS011;64011;56.312;44.048;2022-11-12T11:39:31;10.70;;;3.70;;
38111;SDS011;64011;56.312;44.048;2022-11-12T11:41:43;8.68;;;3.25;;
38111;SDS011;64011;56.312;44.048;2022-11-12T11:43:54;12.40;;;4.88;;
38111;SDS011;64011;56.312;44.048;2022-11-12T11:46:02;5.38;;;2.08;;
38111;SDS011;64011;56.312;44.048;2022-11-12T11:48:10;11.55;;;3.95;;
38111;SDS011;64011;56.312;44.048;2022-11-12T11:50:18;8.93;;;3.45;;
38111;SDS011;64011;56.312;44.048;2022-11-12T11:52:31;11.10;;;3.90;;
38111;SDS011;64011;56.312;44.048;2022-11-12T11:54:45;7.13;;;2.40;;
38111;SDS011;64011;56.312;44.048;2022-11-12T11:56:53;9.80;;;3.50;;
38111;SDS011;64011;56.312;44.048;2022-11-12T11:58:58;8.90;;;3.50;;
38111;SDS011;64011;56.312;44.048;2022-11-12T12:01:07;13.13;;;4.22;;
38111;SDS011;64011;56.312;44.048;2022-11-12T12:03:20;9.73;;;3.50;;
38111;SDS011;64011;56.312;44.048;2022-11-12T12:05:28;6.40;;;2.63;;
38111;SDS011;64011;56.312;44.048;2022-11-12T12:07:33;8.63;;;3.20;;